ADDS METAR Data INFO
IDs: Format: Raw Decoded Include TAF

Data at: 1213 UTC 24 Mar 2017

METAR for:LFQQ (Lille/Lesquin Arpt, --, FR)
Text:LFQQ 241200Z AUTO 08014KT 7000 NSC 12/05 Q1026 NOSIG
Temperature: 12.0°C ( 54°F)
Dewpoint: 5.0°C ( 41°F) [RH = 62%]
Pressure (altimeter):30.30 inches Hg (1026.0 mb)
Winds:from the E (80 degrees) at 16 MPH (14 knots; 7.2 m/s)
Visibility: 4 sm ( 7 km)
Ceiling:at least 12,000 feet AGL
Clouds:sky clear below 12,000 feet AGL

TAF for:LFQQ (Lille/Lesquin Arpt, --, FR) issued at 1100 UTC 24 Mar 2017
Text:TAF LFQQ 241100Z 2412/2518 07012KT CAVOK
Forecast period:1200 UTC 24 March 2017 to 1800 UTC 25 March 2017
Forecast type:FROM: standard forecast or significant change
Winds:from the ENE (70 degrees) at 14 MPH (12 knots; 6.2 m/s)
Visibility:6 or more sm (10+ km)
Clouds:missing
Weather:NSW (no significant weather)


Page loaded:  12:13 UTC  |   05:13 AM Pacific  |   06:13 AM Mountain  |   07:13 AM Central  |   08:13 AM Eastern

 

ADVISORIES

FORECASTS

FORECASTS

OBSERVATIONS

USER TOOLS

ABOUT US